Time;durP1;ratioP1;P1;durP2;ratioP2;P2;SDS_P1;SDS_P2;PMS_P1;PMS_P2;Temp;Humidity;BMP_temperature;BMP_pressure;BME280_temperature;BME280_humidity;BME280_pressure;Samples;Min_cycle;Max_cycle;Signal;HPM_P1;HPM_P2
2022/03/19 00:01:28;;;;;;;12.05;8.13;;;-0.20;99.90;;;;;;5189651;28;20069;-74
2022/03/19 00:03:59;;;;;;;9.80;4.85;;;-0.10;99.90;;;;;;5189663;28;20065;-74
2022/03/19 00:06:31;;;;;;;8.88;5.78;;;-0.10;99.90;;;;;;5189597;28;20026;-74
2022/03/19 00:09:03;;;;;;;9.25;5.20;;;-0.20;99.90;;;;;;5189395;28;20050;-74
2022/03/19 00:11:34;;;;;;;10.90;4.93;;;0.00;99.90;;;;;;5189489;28;20033;-74
2022/03/19 00:14:05;;;;;;;11.40;5.00;;;-0.10;99.90;;;;;;5189480;28;20096;-74
2022/03/19 00:16:36;;;;;;;10.45;4.97;;;-0.10;99.90;;;;;;5189368;28;20029;-74
2022/03/19 00:19:08;;;;;;;19.77;8.48;;;-0.10;99.90;;;;;;5171343;28;20033;-74
2022/03/19 00:21:39;;;;;;;12.70;5.90;;;-0.10;99.90;;;;;;5189155;28;20030;-75
2022/03/19 00:24:10;;;;;;;8.85;4.65;;;-0.10;99.90;;;;;;5171862;28;20022;-74
2022/03/19 00:26:41;;;;;;;11.25;5.05;;;0.20;99.90;;;;;;5189178;28;20048;-73
2022/03/19 00:29:11;;;;;;;10.98;4.78;;;0.30;99.90;;;;;;5189013;28;20030;-74
2022/03/19 00:31:42;;;;;;;9.15;4.63;;;0.00;99.90;;;;;;5188998;28;20548;-74
2022/03/19 00:34:14;;;;;;;11.48;6.07;;;0.10;99.90;;;;;;5189354;28;20030;-74
2022/03/19 00:36:44;;;;;;;10.57;5.40;;;-0.70;99.90;;;;;;5188591;28;20041;-73
2022/03/19 00:39:16;;;;;;;13.75;6.93;;;-1.00;99.90;;;;;;5188543;28;20030;-74
2022/03/19 00:41:46;;;;;;;14.60;7.15;;;-0.90;99.90;;;;;;5188898;28;20080;-74
2022/03/19 00:44:21;;;;;;;12.35;7.50;;;-1.00;99.90;;;;;;5188667;28;20022;-74
2022/03/19 00:46:52;;;;;;;12.15;7.03;;;-0.80;99.90;;;;;;5188680;28;20026;-74
2022/03/19 00:49:23;;;;;;;12.02;6.68;;;-0.50;99.90;;;;;;5188503;28;20041;-74
2022/03/19 00:51:53;;;;;;;13.65;7.18;;;-0.40;99.90;;;;;;5171340;28;20025;-74
2022/03/19 00:54:24;;;;;;;14.27;8.23;;;-0.30;99.90;;;;;;5188744;28;20030;-75
2022/03/19 00:56:55;;;;;;;16.35;9.10;;;-0.40;99.90;;;;;;5189031;28;20498;-74
2022/03/19 00:59:26;;;;;;;15.68;8.25;;;-0.30;99.90;;;;;;5170567;28;20085;-75
2022/03/19 01:01:57;;;;;;;16.08;8.57;;;-0.10;99.90;;;;;;5188464;28;20034;-74
2022/03/19 01:04:27;;;;;;;15.27;8.40;;;-0.20;99.90;;;;;;5188539;28;20390;-74
2022/03/19 01:06:58;;;;;;;13.18;8.23;;;-0.30;99.90;;;;;;5188458;28;20025;-74
2022/03/19 01:09:29;;;;;;;18.88;9.05;;;-0.30;99.90;;;;;;5188355;28;20029;-74
2022/03/19 01:12:00;;;;;;;12.73;7.30;;;-0.30;99.90;;;;;;5188075;28;20034;-74
2022/03/19 01:14:31;;;;;;;13.30;6.20;;;-0.60;99.90;;;;;;5188321;28;20029;-74
2022/03/19 01:17:03;;;;;;;12.48;5.20;;;-0.20;99.90;;;;;;5187945;28;20121;-74
2022/03/19 01:19:52;;;;;;;8.57;4.90;;;-0.60;99.90;;;;;;5188070;28;20153;-74
2022/03/19 01:22:24;;;;;;;10.05;5.60;;;-0.40;99.90;;;;;;5188120;28;20038;-74
2022/03/19 01:24:56;;;;;;;10.80;6.40;;;-0.60;99.90;;;;;;5170560;28;20022;-74
2022/03/19 01:27:27;;;;;;;12.07;6.80;;;-0.60;99.90;;;;;;5188374;28;20080;-74
2022/03/19 01:29:58;;;;;;;15.95;7.10;;;-0.50;99.90;;;;;;5187778;28;20418;-74
2022/03/19 01:32:29;;;;;;;19.65;8.27;;;-0.30;99.90;;;;;;5170328;28;20065;-74
2022/03/19 01:35:00;;;;;;;12.25;5.88;;;-0.30;99.90;;;;;;5187757;28;20057;-74
2022/03/19 01:37:31;;;;;;;12.32;6.50;;;-0.10;99.90;;;;;;5170236;28;20025;-74
2022/03/19 01:40:02;;;;;;;12.27;6.15;;;0.00;99.90;;;;;;5187706;28;20026;-74
2022/03/19 01:42:37;;;;;;;10.98;5.55;;;-0.10;99.90;;;;;;5187502;28;20112;-73
2022/03/19 01:45:16;;;;;;;13.18;5.70;;;-0.20;99.90;;;;;;5187789;28;20478;-74
2022/03/19 01:47:48;;;;;;;12.10;6.13;;;0.00;99.90;;;;;;5170406;28;20497;-74
2022/03/19 01:50:20;;;;;;;12.27;6.28;;;-0.20;99.90;;;;;;5170167;28;20120;-74
2022/03/19 01:52:52;;;;;;;17.05;6.63;;;-0.40;99.90;;;;;;5188182;28;20022;-74
2022/03/19 01:55:25;;;;;;;8.93;5.90;;;-0.40;99.90;;;;;;5187588;28;20451;-73
2022/03/19 01:57:58;;;;;;;14.23;6.45;;;-0.40;99.90;;;;;;5169583;28;20025;-74
2022/03/19 02:00:29;;;;;;;13.93;5.95;;;-0.30;99.90;;;;;;5187108;28;20050;-74
2022/03/19 02:03:01;;;;;;;12.15;6.50;;;-0.40;99.90;;;;;;5187524;28;20030;-74
2022/03/19 02:05:32;;;;;;;11.75;6.43;;;-0.30;99.90;;;;;;5169605;28;20026;-73
2022/03/19 02:08:03;;;;;;;7.93;5.13;;;-0.20;99.90;;;;;;5187198;28;20030;-74
2022/03/19 02:10:34;;;;;;;7.93;5.47;;;-0.20;99.90;;;;;;5187415;28;20104;-74
2022/03/19 02:13:05;;;;;;;9.85;6.18;;;-0.10;99.90;;;;;;5187111;28;20042;-73
2022/03/19 02:15:36;;;;;;;8.82;5.18;;;-0.20;99.90;;;;;;5169947;28;20072;-74
2022/03/19 02:18:07;;;;;;;13.35;6.50;;;-0.10;99.90;;;;;;5187270;28;20022;-74
2022/03/19 02:20:39;;;;;;;12.88;6.45;;;0.00;99.90;;;;;;5186993;28;20038;-75
2022/03/19 02:26:11;;;;;;;13.23;6.68;;;0.20;99.90;;;;;;5187097;28;20097;-73
2022/03/19 02:28:42;;;;;;;15.80;7.38;;;0.00;99.90;;;;;;5186599;28;20458;-74
2022/03/19 02:31:13;;;;;;;16.77;9.05;;;0.10;99.90;;;;;;5186825;28;20041;-74
2022/03/19 02:33:44;;;;;;;18.92;7.78;;;0.00;99.90;;;;;;5186976;28;20078;-74
2022/03/19 02:36:16;;;;;;;17.83;8.65;;;-0.10;99.90;;;;;;5169276;28;20032;-74
2022/03/19 02:38:51;;;;;;;19.42;10.27;;;-0.10;99.90;;;;;;5186727;28;20022;-74
2022/03/19 02:41:22;;;;;;;20.90;10.80;;;-0.30;99.90;;;;;;5168876;28;20073;-73
2022/03/19 02:43:53;;;;;;;21.10;12.15;;;-0.30;99.90;;;;;;5186716;28;20049;-74
2022/03/19 02:46:37;;;;;;;21.40;11.25;;;-0.20;99.90;;;;;;5186555;28;20030;-75
2022/03/19 02:49:08;;;;;;;16.63;8.90;;;-0.40;99.90;;;;;;5186682;28;20425;-73
2022/03/19 02:51:42;;;;;;;9.52;5.70;;;-0.60;99.90;;;;;;5169157;28;20022;-74
2022/03/19 02:54:16;;;;;;;11.32;7.00;;;-0.80;99.90;;;;;;5186959;28;20026;-74
2022/03/19 02:56:47;;;;;;;12.13;7.50;;;-0.80;99.90;;;;;;5186516;28;20026;-74
2022/03/19 02:59:27;;;;;;;13.82;8.38;;;-0.90;99.90;;;;;;5186443;28;20037;-74
2022/03/19 03:02:00;;;;;;;14.27;9.35;;;-0.60;99.90;;;;;;5187059;28;20070;-74
2022/03/19 03:04:31;;;;;;;18.90;11.02;;;-0.70;99.90;;;;;;5169011;28;20478;-75
2022/03/19 03:07:03;;;;;;;18.67;10.95;;;-0.80;99.90;;;;;;5186620;28;20030;-75
2022/03/19 03:09:34;;;;;;;20.50;12.40;;;-0.80;99.90;;;;;;5172138;28;20468;-74
2022/03/19 03:12:05;;;;;;;26.48;13.38;;;-0.70;99.90;;;;;;5190638;28;20112;-75
2022/03/19 03:14:36;;;;;;;18.35;12.48;;;-0.60;99.90;;;;;;5191190;28;20026;-75
2022/03/19 03:17:07;;;;;;;21.73;12.60;;;-0.60;99.90;;;;;;5190776;28;20073;-75
2022/03/19 03:19:38;;;;;;;18.02;12.23;;;-0.70;99.90;;;;;;5190692;28;20018;-74
2022/03/19 03:22:09;;;;;;;21.58;13.70;;;-0.60;99.90;;;;;;5173477;28;20492;-74
2022/03/19 03:24:40;;;;;;;21.67;12.88;;;-0.90;99.90;;;;;;5190650;28;20474;-75
2022/03/19 03:27:11;;;;;;;21.95;14.30;;;-0.90;99.90;;;;;;5190297;28;20038;-74
2022/03/19 03:29:42;;;;;;;21.08;13.52;;;-0.90;99.90;;;;;;5172697;28;20030;-75
2022/03/19 03:32:12;;;;;;;22.45;12.52;;;-1.10;99.90;;;;;;5190418;28;20493;-74
2022/03/19 03:34:43;;;;;;;21.02;12.50;;;-1.00;99.90;;;;;;5190627;28;20029;-74
2022/03/19 03:37:17;;;;;;;19.30;12.13;;;-0.80;99.90;;;;;;5190348;28;20037;-74
2022/03/19 03:39:48;;;;;;;17.63;12.15;;;-0.90;99.90;;;;;;5190108;28;20374;-74
2022/03/19 03:42:19;;;;;;;22.33;12.57;;;-1.00;99.90;;;;;;5189842;28;20045;-74
2022/03/19 03:44:54;;;;;;;20.30;11.77;;;-0.80;99.90;;;;;;5172786;28;20164;-75
2022/03/19 03:47:26;;;;;;;22.00;11.30;;;-0.70;99.90;;;;;;5189919;28;20027;-74
2022/03/19 03:49:57;;;;;;;18.92;11.30;;;-0.60;99.90;;;;;;5189819;28;20099;-75
2022/03/19 03:52:30;;;;;;;21.95;12.93;;;-0.90;99.90;;;;;;5190056;28;20065;-74
2022/03/19 03:55:01;;;;;;;22.55;15.23;;;-1.10;99.90;;;;;;5189832;28;20029;-75
2022/03/19 03:57:34;;;;;;;22.98;14.25;;;-1.00;99.90;;;;;;5189811;28;20021;-74
2022/03/19 04:00:08;;;;;;;25.00;14.48;;;-1.10;99.90;;;;;;5189313;28;20103;-74
2022/03/19 04:02:39;;;;;;;23.38;15.10;;;-1.10;99.90;;;;;;5189480;28;20038;-74
2022/03/19 04:05:10;;;;;;;24.75;15.43;;;-1.00;99.90;;;;;;5189542;28;20082;-74
2022/03/19 04:07:41;;;;;;;25.00;14.20;;;-1.10;99.90;;;;;;5189625;28;20081;-74
2022/03/19 04:10:12;;;;;;;24.88;14.73;;;-1.20;99.90;;;;;;5190042;28;20119;-74
2022/03/19 04:12:44;;;;;;;23.52;14.50;;;-1.30;99.90;;;;;;5171728;28;20030;-75
2022/03/19 04:15:18;;;;;;;26.08;14.95;;;-1.20;99.90;;;;;;5189510;28;20041;-74
2022/03/19 04:17:49;;;;;;;19.17;13.07;;;-1.20;99.90;;;;;;5171775;28;20111;-75
2022/03/19 04:20:21;;;;;;;19.55;11.85;;;-1.10;99.90;;;;;;5188951;28;20066;-74
2022/03/19 04:22:52;;;;;;;19.50;11.60;;;-1.20;99.90;;;;;;5189284;28;20189;-75
2022/03/19 04:25:25;;;;;;;22.70;13.88;;;-1.30;99.90;;;;;;5189272;28;20030;-74
2022/03/19 04:27:57;;;;;;;21.65;13.60;;;-1.10;99.90;;;;;;5189006;28;20059;-74
2022/03/19 04:30:28;;;;;;;24.25;14.75;;;-1.30;99.90;;;;;;5189617;28;20034;-75
2022/03/19 04:33:02;;;;;;;18.48;12.68;;;-1.10;99.90;;;;;;5189126;28;20026;-74
2022/03/19 04:38:23;;;;;;;21.63;13.02;;;-1.00;99.90;;;;;;5189366;28;20049;-75
2022/03/19 04:40:54;;;;;;;18.63;12.73;;;-0.90;99.90;;;;;;5189228;28;20108;-74
2022/03/19 04:43:24;;;;;;;20.05;12.10;;;-0.80;99.90;;;;;;5171158;28;20061;-75
2022/03/19 04:45:55;;;;;;;23.23;12.95;;;-0.80;99.90;;;;;;5188808;28;20026;-75
2022/03/19 04:48:27;;;;;;;24.73;13.43;;;-0.80;99.90;;;;;;5189012;28;20030;-75
2022/03/19 04:50:58;;;;;;;23.25;14.02;;;-0.90;99.90;;;;;;5188798;28;20022;-75
2022/03/19 04:53:30;;;;;;;21.63;13.10;;;-1.00;99.90;;;;;;5171427;28;20498;-74
2022/03/19 04:56:01;;;;;;;22.98;13.95;;;-1.00;99.90;;;;;;5188708;28;20022;-75
2022/03/19 04:58:33;;;;;;;26.42;14.98;;;-0.80;99.90;;;;;;5188234;28;20363;-75
2022/03/19 05:01:04;;;;;;;24.50;14.05;;;-0.90;99.90;;;;;;5171088;28;20053;-75
2022/03/19 05:03:34;;;;;;;21.65;13.82;;;-0.70;99.90;;;;;;5170592;28;20032;-75
2022/03/19 05:06:05;;;;;;;31.60;16.05;;;-0.70;99.90;;;;;;5188504;28;20412;-75
2022/03/19 05:08:36;;;;;;;28.85;18.00;;;-0.60;99.90;;;;;;5188011;28;20014;-75
2022/03/19 05:11:13;;;;;;;26.17;14.23;;;-0.50;99.90;;;;;;5188438;28;20386;-75
2022/03/19 05:13:47;;;;;;;28.58;15.85;;;-0.50;99.90;;;;;;5188434;28;20030;-75
2022/03/19 05:16:19;;;;;;;20.70;11.40;;;-0.50;99.90;;;;;;5188292;28;20045;-75
2022/03/19 05:18:50;;;;;;;12.98;6.57;;;-0.60;99.90;;;;;;5170544;28;20029;-75
2022/03/19 05:21:21;;;;;;;10.20;6.35;;;-0.50;99.90;;;;;;5170159;28;20486;-75
2022/03/19 05:23:52;;;;;;;14.48;8.68;;;-0.40;99.90;;;;;;5188167;28;20033;-75
2022/03/19 05:26:23;;;;;;;15.77;8.38;;;-0.20;99.90;;;;;;5170932;28;20544;-75
2022/03/19 05:28:55;;;;;;;18.58;9.18;;;-0.10;99.90;;;;;;5188024;28;20048;-75
2022/03/19 05:31:27;;;;;;;17.42;8.68;;;0.00;99.90;;;;;;5187071;28;20022;-76
2022/03/19 05:36:48;;;;;;;12.85;8.00;;;-0.10;99.90;;;;;;5187994;28;20030;-75
2022/03/19 05:39:18;;;;;;;13.50;7.47;;;0.20;99.90;;;;;;5187740;28;20025;-75
2022/03/19 05:41:49;;;;;;;15.07;7.47;;;0.10;99.90;;;;;;5169975;28;20052;-75
2022/03/19 05:44:20;;;;;;;12.13;5.95;;;0.00;99.90;;;;;;5187610;28;20389;-75
2022/03/19 05:46:52;;;;;;;9.82;5.28;;;0.00;99.90;;;;;;5187751;28;20029;-75
2022/03/19 05:49:22;;;;;;;12.57;6.10;;;-0.20;99.90;;;;;;5187698;28;20014;-75
2022/03/19 05:51:54;;;;;;;11.73;6.63;;;-0.20;99.90;;;;;;5170107;28;20041;-75
2022/03/19 05:54:25;;;;;;;15.77;8.23;;;0.00;99.90;;;;;;5187503;28;20021;-75
2022/03/19 05:56:56;;;;;;;17.25;9.52;;;0.10;99.90;;;;;;5169941;28;20030;-75
2022/03/19 05:59:28;;;;;;;20.77;9.98;;;0.00;99.90;;;;;;5187205;28;20104;-75
2022/03/19 06:01:59;;;;;;;22.08;10.70;;;-0.10;99.90;;;;;;5187322;28;20042;-75
2022/03/19 06:04:30;;;;;;;20.83;9.57;;;-0.20;99.90;;;;;;5187470;28;20053;-75
2022/03/19 06:07:02;;;;;;;12.30;7.00;;;-0.20;99.90;;;;;;5187334;28;20155;-75
2022/03/19 06:09:34;;;;;;;12.25;6.35;;;-0.10;99.90;;;;;;5187303;28;20037;-75
2022/03/19 06:12:05;;;;;;;8.90;4.43;;;0.00;99.90;;;;;;5187354;28;20021;-75
2022/03/19 06:14:35;;;;;;;10.15;4.90;;;-0.10;99.90;;;;;;5187244;28;20079;-75
2022/03/19 06:17:07;;;;;;;11.73;5.10;;;-0.10;99.90;;;;;;5187224;28;20014;-75
2022/03/19 06:19:37;;;;;;;10.48;5.70;;;0.00;99.90;;;;;;5187112;28;20036;-75
2022/03/19 06:22:08;;;;;;;13.07;6.90;;;0.20;99.90;;;;;;5187322;28;20493;-75
2022/03/19 06:24:39;;;;;;;11.80;7.05;;;0.00;99.90;;;;;;5186680;28;20079;-75
2022/03/19 06:27:10;;;;;;;15.00;9.38;;;-0.10;99.90;;;;;;5186914;28;20096;-75
2022/03/19 06:29:41;;;;;;;16.15;9.15;;;-0.30;99.90;;;;;;5186924;28;20030;-75
2022/03/19 06:32:12;;;;;;;19.55;10.23;;;-0.10;99.90;;;;;;5186990;28;20069;-75
2022/03/19 06:34:43;;;;;;;15.35;9.07;;;-0.10;99.90;;;;;;5186985;28;20462;-75
2022/03/19 06:37:20;;;;;;;16.45;9.40;;;-0.10;99.90;;;;;;5186598;28;20037;-75
2022/03/19 06:39:55;;;;;;;15.60;9.00;;;-0.60;99.90;;;;;;5186832;28;20034;-76
2022/03/19 06:42:26;;;;;;;16.63;8.65;;;-0.40;99.90;;;;;;5186429;28;20121;-75
2022/03/19 06:44:57;;;;;;;18.23;10.93;;;-0.40;99.90;;;;;;5186913;28;20056;-75
2022/03/19 06:47:28;;;;;;;20.40;10.15;;;-0.30;99.90;;;;;;5186370;28;20496;-75
2022/03/19 06:50:00;;;;;;;20.42;10.93;;;-0.40;99.90;;;;;;5186720;28;20029;-76
2022/03/19 06:52:33;;;;;;;23.05;12.25;;;-0.10;99.90;;;;;;5186856;28;20482;-75
2022/03/19 06:55:04;;;;;;;22.48;12.40;;;-0.10;99.90;;;;;;5186666;28;20160;-76
2022/03/19 06:57:35;;;;;;;18.60;11.20;;;0.00;99.90;;;;;;5186586;28;20025;-76
2022/03/19 07:00:06;;;;;;;17.33;10.02;;;-0.10;99.90;;;;;;5186316;28;20048;-76
2022/03/19 07:02:54;;;;;;;16.13;9.10;;;-0.20;99.90;;;;;;5186807;28;20422;-76
2022/03/19 07:05:26;;;;;;;14.45;8.35;;;-0.20;99.90;;;;;;5186621;28;20044;-76
2022/03/19 07:07:59;;;;;;;16.20;8.57;;;-0.10;99.90;;;;;;5186455;28;20034;-76
2022/03/19 07:10:30;;;;;;;11.60;4.95;;;-0.10;99.90;;;;;;5186562;28;20029;-76
2022/03/19 07:13:01;;;;;;;9.93;6.05;;;-0.40;99.90;;;;;;5186508;28;20030;-76
2022/03/19 07:15:32;;;;;;;10.98;5.85;;;-0.30;99.90;;;;;;5186469;28;20022;-76
2022/03/19 07:18:03;;;;;;;11.85;7.22;;;-0.30;99.90;;;;;;5186524;28;20508;-76
2022/03/19 07:20:34;;;;;;;14.73;8.57;;;-0.40;99.90;;;;;;5169164;28;20065;-77
2022/03/19 07:23:06;;;;;;;15.25;7.80;;;-0.20;99.90;;;;;;5186264;28;20026;-76
2022/03/19 07:25:40;;;;;;;10.73;6.20;;;-0.10;99.90;;;;;;5168525;28;20367;-76
2022/03/19 07:28:19;;;;;;;9.10;6.05;;;-0.20;99.90;;;;;;5186265;28;20088;-76
2022/03/19 07:30:50;;;;;;;10.85;6.07;;;-0.30;99.90;;;;;;5186544;28;20161;-76
2022/03/19 07:33:22;;;;;;;7.65;5.55;;;-0.10;99.90;;;;;;5186701;28;20505;-76
2022/03/19 07:35:53;;;;;;;8.45;5.35;;;-0.40;99.90;;;;;;5186266;28;20022;-75
2022/03/19 07:38:24;;;;;;;10.80;6.57;;;-0.30;99.90;;;;;;5186178;28;20048;-76
2022/03/19 07:43:44;;;;;;;12.73;8.00;;;-0.40;99.90;;;;;;5186425;28;20037;-75
2022/03/19 07:46:20;;;;;;;10.82;6.85;;;-0.30;99.90;;;;;;5168431;28;20034;-75
2022/03/19 07:48:51;;;;;;;11.02;6.95;;;-0.30;99.90;;;;;;5168409;28;20037;-76
2022/03/19 07:51:22;;;;;;;9.38;6.70;;;-0.60;99.90;;;;;;5168570;28;20038;-74
2022/03/19 07:53:53;;;;;;;13.57;8.13;;;-0.60;99.90;;;;;;5185989;28;20026;-75
2022/03/19 07:56:24;;;;;;;13.45;8.10;;;-0.40;99.90;;;;;;5171960;28;20025;-74
2022/03/19 07:58:55;;;;;;;13.00;7.22;;;-0.50;99.90;;;;;;5171890;28;20026;-74
2022/03/19 08:01:26;;;;;;;10.38;7.13;;;-0.30;99.90;;;;;;5189982;28;20038;-74
2022/03/19 08:03:57;;;;;;;12.10;7.90;;;-0.10;99.90;;;;;;5172033;28;20033;-74
2022/03/19 08:06:27;;;;;;;17.35;9.43;;;0.00;99.90;;;;;;5189370;28;20030;-73
2022/03/19 08:08:58;;;;;;;21.70;10.38;;;-0.20;99.90;;;;;;5189360;28;20032;-73
2022/03/19 08:11:31;;;;;;;20.00;10.82;;;-0.20;99.90;;;;;;5189298;28;20018;-73
2022/03/19 08:14:03;;;;;;;20.17;12.50;;;-0.20;99.90;;;;;;5189449;28;20029;-73
2022/03/19 08:16:34;;;;;;;29.55;13.07;;;-0.20;99.90;;;;;;5189084;28;20153;-73
2022/03/19 08:19:05;;;;;;;48.35;22.10;;;-0.10;99.90;;;;;;5189103;28;20501;-74
2022/03/19 08:21:36;;;;;;;58.92;38.85;;;0.00;99.90;;;;;;5189053;28;20038;-76
2022/03/19 08:24:07;;;;;;;96.70;59.65;;;0.10;99.90;;;;;;5189163;28;20102;-78
2022/03/19 08:26:39;;;;;;;52.85;33.70;;;0.30;99.90;;;;;;5189098;28;20083;-74
2022/03/19 08:29:10;;;;;;;22.95;15.18;;;0.50;99.90;;;;;;5189133;28;20362;-77
2022/03/19 08:31:41;;;;;;;87.68;58.42;;;0.70;99.90;;;;;;5188599;28;20034;-75
2022/03/19 08:34:12;;;;;;;91.38;56.63;;;0.70;99.90;;;;;;5189237;28;20026;-76
2022/03/19 08:36:43;;;;;;;35.00;25.45;;;0.90;99.90;;;;;;5188946;28;20033;-77
2022/03/19 08:42:04;;;;;;;26.83;17.48;;;0.80;99.90;;;;;;5186735;28;20049;-76
2022/03/19 08:44:34;;;;;;;22.27;13.30;;;1.10;99.90;;;;;;5182125;28;20105;-76
2022/03/19 08:47:05;;;;;;;23.40;16.23;;;1.10;99.90;;;;;;5150416;28;20183;-77
2022/03/19 08:49:36;;;;;;;17.48;12.32;;;1.30;99.90;;;;;;5167772;28;20030;-77
2022/03/19 08:52:08;;;;;;;12.55;7.97;;;1.00;99.90;;;;;;5167958;28;20124;-73
2022/03/19 08:54:38;;;;;;;13.25;9.00;;;0.90;99.90;;;;;;5178972;28;20029;-75
2022/03/19 08:57:10;;;;;;;14.57;10.05;;;0.80;99.90;;;;;;5179915;28;20467;-78
2022/03/19 08:59:41;;;;;;;13.95;10.73;;;0.40;99.90;;;;;;5167545;28;20042;-75
2022/03/19 09:02:12;;;;;;;17.92;15.00;;;0.50;99.90;;;;;;5167683;28;20049;-74
2022/03/19 09:04:43;;;;;;;18.05;11.82;;;0.30;99.90;;;;;;5167713;28;20026;-76
2022/03/19 09:07:14;;;;;;;9.70;6.72;;;0.20;99.90;;;;;;5167442;28;20030;-75
2022/03/19 09:09:45;;;;;;;10.52;6.57;;;0.30;99.90;;;;;;5167521;28;20026;-74
2022/03/19 09:12:16;;;;;;;12.25;6.97;;;0.20;99.90;;;;;;5163593;28;20033;-74
2022/03/19 09:14:47;;;;;;;13.77;8.20;;;0.40;99.90;;;;;;5170230;28;20466;-76
2022/03/19 09:17:18;;;;;;;12.68;7.75;;;0.20;99.90;;;;;;5170191;28;20030;-77
2022/03/19 09:19:49;;;;;;;13.15;7.47;;;0.30;99.90;;;;;;5187963;28;20018;-78
2022/03/19 09:22:19;;;;;;;14.38;8.85;;;0.80;99.90;;;;;;5187913;28;20037;-78
2022/03/19 09:24:50;;;;;;;12.23;9.00;;;0.80;99.90;;;;;;5170434;28;20033;-73
2022/03/19 09:27:22;;;;;;;10.90;6.47;;;0.70;99.90;;;;;;5170116;28;20432;-74
2022/03/19 09:29:52;;;;;;;9.35;7.00;;;0.80;99.90;;;;;;5187804;28;20077;-74
2022/03/19 09:32:23;;;;;;;15.07;7.88;;;0.20;99.90;;;;;;5187778;28;20029;-73
2022/03/19 09:34:54;;;;;;;11.90;7.63;;;0.30;99.90;;;;;;5184975;28;20060;-74
2022/03/19 09:37:25;;;;;;;12.18;8.45;;;0.00;99.90;;;;;;5187667;28;20096;-73
2022/03/19 09:39:56;;;;;;;8.85;6.75;;;-0.10;99.90;;;;;;5187760;28;20021;-73
2022/03/19 09:42:28;;;;;;;11.57;8.40;;;0.00;99.90;;;;;;5187169;28;20052;-73
2022/03/19 09:45:00;;;;;;;13.82;10.07;;;0.10;99.90;;;;;;5170006;28;20116;-73
2022/03/19 09:47:30;;;;;;;14.00;9.18;;;0.40;99.90;;;;;;5187456;28;20029;-74
2022/03/19 09:50:01;;;;;;;19.80;11.90;;;0.10;99.90;;;;;;5187517;28;20025;-74
2022/03/19 09:52:36;;;;;;;19.25;12.13;;;0.40;99.90;;;;;;5169834;28;20029;-77
2022/03/19 09:55:08;;;;;;;19.67;11.35;;;0.40;99.90;;;;;;5187365;28;20014;-76
2022/03/19 09:57:39;;;;;;;16.58;9.98;;;0.30;99.90;;;;;;5169636;28;20038;-74
2022/03/19 10:00:12;;;;;;;16.88;9.23;;;0.60;99.90;;;;;;5186941;28;20080;-73
2022/03/19 10:03:00;;;;;;;18.15;9.75;;;0.80;99.90;;;;;;5177923;28;20049;-75
2022/03/19 10:08:43;;;;;;;12.20;8.05;;;1.10;99.90;;;;;;5187266;28;20101;-73
2022/03/19 10:11:15;;;;;;;12.60;7.38;;;1.00;99.90;;;;;;5186794;28;20022;-73
2022/03/19 10:13:49;;;;;;;13.10;7.28;;;1.00;99.90;;;;;;5180118;28;20050;-78
2022/03/19 10:16:28;;;;;;;14.82;7.38;;;1.10;99.90;;;;;;5186525;28;20026;-72
2022/03/19 10:19:01;;;;;;;12.55;7.82;;;1.00;99.90;;;;;;5186459;28;20508;-83
2022/03/19 10:21:37;;;;;;;11.55;7.45;;;1.40;99.90;;;;;;5186517;28;20076;-73
2022/03/19 10:24:20;;;;;;;11.15;6.95;;;1.40;99.90;;;;;;5186581;28;20065;-72
2022/03/19 10:26:51;;;;;;;12.63;7.32;;;1.50;99.90;;;;;;5165694;28;20030;-88
2022/03/19 10:29:31;;;;;;;7.75;5.38;;;1.70;99.90;;;;;;5168771;28;20474;-73
2022/03/19 10:32:07;;;;;;;10.60;5.97;;;1.80;99.90;;;;;;5186632;28;20058;-76
2022/03/19 10:34:40;;;;;;;11.57;6.95;;;1.70;99.90;;;;;;5186655;28;20353;-74
2022/03/19 10:37:32;;;;;;;14.57;9.15;;;1.30;99.90;;;;;;5186467;28;20091;-74
2022/03/19 10:40:05;;;;;;;14.60;7.53;;;1.30;99.90;;;;;;5181345;28;20022;-74
2022/03/19 10:42:38;;;;;;;15.55;8.40;;;1.40;99.90;;;;;;5185558;28;20116;-75
2022/03/19 10:45:20;;;;;;;11.55;6.55;;;1.60;99.90;;;;;;5133002;28;20053;-76
2022/03/19 10:47:51;;;;;;;13.80;7.75;;;2.00;99.90;;;;;;5125576;29;20034;-72
2022/03/19 10:50:23;;;;;;;15.32;8.43;;;1.50;99.90;;;;;;5141439;28;20423;-76
2022/03/19 10:52:56;;;;;;;19.83;8.23;;;1.70;99.90;;;;;;5139355;28;20037;-75
2022/03/19 10:55:27;;;;;;;11.00;5.22;;;1.80;99.90;;;;;;5128197;28;20027;-79
2022/03/19 10:57:58;;;;;;;14.15;7.05;;;1.70;99.90;;;;;;5145371;28;20034;-89
2022/03/19 11:00:28;;;;;;;9.80;6.13;;;1.90;99.90;;;;;;5144507;28;20059;-74
2022/03/19 11:03:01;;;;;;;9.30;4.45;;;2.80;99.90;;;;;;5145237;28;20423;-79
2022/03/19 11:05:34;;;;;;;9.88;5.40;;;2.00;99.90;;;;;;5145195;28;20110;-73
2022/03/19 11:08:09;;;;;;;11.10;7.78;;;3.00;99.90;;;;;;5145416;28;20093;-82
2022/03/19 11:10:40;;;;;;;9.98;6.05;;;2.50;99.90;;;;;;5144284;28;20029;-75
2022/03/19 11:13:16;;;;;;;10.02;5.07;;;2.10;99.90;;;;;;5146494;28;20090;-85
2022/03/19 11:15:55;;;;;;;10.18;6.22;;;2.40;99.90;;;;;;5145967;28;20030;-86
2022/03/19 11:18:27;;;;;;;12.80;6.35;;;1.80;99.90;;;;;;5114825;29;20041;-77
2022/03/19 11:20:58;;;;;;;12.45;7.57;;;1.70;99.90;;;;;;5142033;28;20031;-73
2022/03/19 11:23:42;;;;;;;43.08;24.75;;;1.90;99.90;;;;;;5144131;28;20106;-74
2022/03/19 11:26:19;;;;;;;16.85;11.90;;;1.30;99.90;;;;;;5144434;28;20050;-82
2022/03/19 11:28:51;;;;;;;18.35;9.10;;;1.10;99.90;;;;;;5145448;28;20026;-74
2022/03/19 11:31:28;;;;;;;42.03;25.95;;;0.90;99.90;;;;;;5147926;28;20034;-81
2022/03/19 11:34:12;;;;;;;66.60;43.38;;;0.60;99.90;;;;;;5134836;28;20037;-82
2022/03/19 11:37:03;;;;;;;58.72;36.35;;;0.80;99.90;;;;;;5150005;28;20109;-73
2022/03/19 11:39:34;;;;;;;71.50;53.13;;;1.50;99.90;;;;;;5149365;28;20074;-76
2022/03/19 11:42:09;;;;;;;30.50;21.92;;;1.80;99.90;;;;;;5149345;28;20129;-76
2022/03/19 11:44:49;;;;;;;28.65;21.33;;;1.70;99.90;;;;;;5132268;28;20463;-73
2022/03/19 11:47:31;;;;;;;17.17;10.90;;;1.40;99.90;;;;;;5132217;28;20023;-79
2022/03/19 11:50:02;;;;;;;10.38;6.05;;;1.40;99.90;;;;;;5149121;28;20045;-83
2022/03/19 11:52:39;;;;;;;8.10;5.35;;;1.50;99.90;;;;;;5149396;28;20034;-84
2022/03/19 11:55:12;;;;;;;9.82;6.57;;;2.20;99.90;;;;;;5149397;28;20375;-74
2022/03/19 11:57:46;;;;;;;7.53;5.05;;;2.30;99.90;;;;;;5131473;28;20054;-73
2022/03/19 12:00:18;;;;;;;9.07;4.82;;;2.30;99.90;;;;;;5148870;28;20519;-79
2022/03/19 12:03:07;;;;;;;10.70;5.65;;;1.60;99.90;;;;;;5148716;28;20050;-74
2022/03/19 12:05:41;;;;;;;10.15;6.30;;;1.10;99.90;;;;;;5148997;28;20023;-74
2022/03/19 12:08:24;;;;;;;12.50;7.25;;;1.30;99.90;;;;;;5148949;28;20490;-74
2022/03/19 12:11:14;;;;;;;10.93;8.15;;;1.30;99.90;;;;;;5148849;28;20037;-73
2022/03/19 12:13:49;;;;;;;10.00;6.57;;;1.20;99.90;;;;;;5149014;28;20099;-75
2022/03/19 12:16:49;;;;;;;11.18;6.20;;;1.40;99.90;;;;;;5148837;28;20058;-73
2022/03/19 12:20:09;;;;;;;12.55;6.10;;;1.60;99.90;;;;;;5131827;28;20117;-73
2022/03/19 12:22:41;;;;;;;11.38;6.18;;;1.70;99.90;;;;;;5140040;28;20122;-74
2022/03/19 12:25:23;;;;;;;11.00;7.80;;;1.40;99.90;;;;;;5148758;28;20117;-74
2022/03/19 12:27:56;;;;;;;9.70;6.30;;;1.40;99.90;;;;;;5148521;28;20034;-75
2022/03/19 12:30:27;;;;;;;13.57;8.10;;;1.10;99.90;;;;;;5131315;28;20035;-74
2022/03/19 12:32:59;;;;;;;10.80;6.82;;;1.00;99.90;;;;;;5148679;28;20497;-73
2022/03/19 12:35:32;;;;;;;12.63;7.75;;;1.20;99.90;;;;;;5148610;28;20077;-74
2022/03/19 12:38:03;;;;;;;15.98;9.13;;;1.30;99.90;;;;;;5148460;28;20050;-73
2022/03/19 12:43:37;;;;;;;16.42;8.70;;;1.10;99.90;;;;;;5148457;28;20038;-73
2022/03/19 12:46:08;;;;;;;14.68;8.25;;;1.10;99.90;;;;;;5148421;28;20030;-75
2022/03/19 12:48:40;;;;;;;11.57;7.63;;;1.10;99.90;;;;;;5130706;28;20023;-73
2022/03/19 12:51:21;;;;;;;11.88;9.05;;;1.20;99.90;;;;;;5130951;28;20042;-73
2022/03/19 12:53:52;;;;;;;14.05;8.52;;;1.40;99.90;;;;;;5130934;28;20101;-75
2022/03/19 12:56:26;;;;;;;12.30;8.02;;;1.10;99.90;;;;;;5130411;28;20062;-73
2022/03/19 12:58:58;;;;;;;11.48;7.93;;;1.10;99.90;;;;;;5130303;28;20038;-82
2022/03/19 13:01:30;;;;;;;15.20;8.70;;;0.80;99.90;;;;;;5148245;28;20039;-81
2022/03/19 13:04:01;;;;;;;14.65;8.27;;;0.80;99.90;;;;;;5147849;28;20038;-74
2022/03/19 13:06:41;;;;;;;12.10;8.48;;;0.70;99.90;;;;;;5130355;28;20026;-74
2022/03/19 13:09:12;;;;;;;12.43;8.50;;;0.70;99.90;;;;;;5145041;28;20038;-80
2022/03/19 13:11:49;;;;;;;12.73;8.25;;;0.70;99.90;;;;;;5147460;28;20418;-73
2022/03/19 13:14:20;;;;;;;11.75;8.65;;;0.50;99.90;;;;;;5130590;28;20081;-73
2022/03/19 13:16:54;;;;;;;17.67;10.10;;;0.60;99.90;;;;;;5147749;28;20034;-73
2022/03/19 13:19:27;;;;;;;18.20;10.75;;;0.60;99.90;;;;;;5147768;28;20102;-73
2022/03/19 13:21:58;;;;;;;17.65;11.50;;;0.80;99.90;;;;;;5147472;28;20043;-72
2022/03/19 13:24:29;;;;;;;23.02;17.08;;;1.00;99.90;;;;;;5147618;28;20102;-73
2022/03/19 13:27:00;;;;;;;24.98;16.65;;;1.40;99.90;;;;;;5129541;28;20118;-79